createdAt,value
2018-09-18T00:02:03.363Z,14.70
2018-09-18T00:04:35.203Z,14.70
2018-09-18T00:07:09.001Z,14.60
2018-09-18T00:09:39.621Z,14.60
2018-09-18T00:12:10.265Z,14.50
2018-09-18T00:14:41.230Z,14.40
2018-09-18T00:17:11.047Z,14.30
2018-09-18T00:19:40.748Z,14.30
2018-09-18T00:22:09.694Z,14.30
2018-09-18T00:24:38.771Z,14.30
2018-09-18T00:27:07.744Z,14.40
2018-09-18T00:29:36.739Z,14.30
2018-09-18T00:32:05.822Z,14.20
2018-09-18T00:34:34.846Z,14.20
2018-09-18T00:37:04.144Z,14.20
2018-09-18T00:39:33.157Z,14.20
2018-09-18T00:42:02.101Z,14.20
2018-09-18T00:44:31.294Z,14.10
2018-09-18T00:47:00.256Z,14.10
2018-09-18T00:49:29.246Z,14.10
2018-09-18T00:51:58.259Z,14.10
2018-09-18T00:54:27.218Z,14.10
2018-09-18T00:56:56.207Z,14.10
2018-09-18T00:59:25.184Z,14.10
2018-09-18T01:01:55.084Z,14.10
2018-09-18T01:04:24.175Z,14.10
2018-09-18T01:06:53.930Z,14.10
2018-09-18T01:09:22.889Z,14.10
2018-09-18T01:11:51.881Z,14.10
2018-09-18T01:14:20.874Z,13.90
2018-09-18T01:16:50.178Z,13.90
2018-09-18T01:19:19.150Z,13.90
2018-09-18T01:21:48.139Z,13.90
2018-09-18T01:24:17.090Z,13.90
2018-09-18T01:26:46.097Z,13.90
2018-09-18T01:29:15.110Z,13.90
2018-09-18T01:31:44.091Z,13.90
2018-09-18T01:34:13.860Z,13.90
2018-09-18T01:36:43.669Z,13.90
2018-09-18T01:39:12.724Z,13.90
2018-09-18T01:41:41.686Z,13.90
2018-09-18T01:44:10.651Z,14.00
2018-09-18T01:46:41.384Z,14.00
2018-09-18T01:49:11.395Z,14.00
2018-09-18T01:51:40.679Z,14.00
2018-09-18T01:54:10.809Z,14.00
2018-09-18T01:56:39.810Z,14.00
2018-09-18T01:59:08.860Z,14.00
2018-09-18T02:01:37.910Z,14.10
2018-09-18T02:04:06.894Z,14.10
2018-09-18T02:06:35.888Z,14.10
2018-09-18T02:09:05.860Z,14.10
2018-09-18T02:11:35.839Z,14.00
2018-09-18T02:14:05.086Z,13.90
2018-09-18T02:16:34.066Z,14.00
2018-09-18T02:19:09.560Z,14.00
2018-09-18T02:21:38.523Z,14.00
2018-09-18T02:24:07.472Z,14.00
2018-09-18T02:26:36.570Z,13.90
2018-09-18T02:29:05.634Z,13.90
2018-09-18T02:31:34.650Z,13.90
2018-09-18T02:34:04.489Z,13.90
2018-09-18T02:36:33.537Z,13.80
2018-09-18T02:39:02.542Z,13.80
2018-09-18T02:41:31.525Z,13.70
2018-09-18T02:44:00.886Z,13.80
2018-09-18T02:46:29.947Z,13.80
2018-09-18T02:48:58.898Z,13.80
2018-09-18T02:51:27.936Z,13.80
2018-09-18T02:53:56.904Z,13.80
2018-09-18T02:56:25.906Z,13.80
2018-09-18T02:58:54.869Z,13.70
2018-09-18T03:01:23.845Z,13.70
2018-09-18T03:03:52.839Z,13.70
2018-09-18T03:06:23.626Z,13.70
2018-09-18T03:08:53.513Z,13.70
2018-09-18T03:11:22.589Z,13.70
2018-09-18T03:13:51.537Z,13.70
2018-09-18T03:16:20.512Z,13.70
2018-09-18T03:18:51.033Z,13.60
2018-09-18T03:21:20.075Z,13.70
2018-09-18T03:23:49.111Z,13.70
2018-09-18T03:26:18.080Z,13.60
2018-09-18T03:28:47.075Z,13.70
2018-09-18T03:31:16.133Z,13.60
2018-09-18T03:33:45.148Z,13.60
2018-09-18T03:36:14.144Z,13.60
2018-09-18T03:38:44.145Z,13.60
2018-09-18T03:41:13.219Z,13.60
2018-09-18T03:43:42.248Z,13.60
2018-09-18T03:46:11.224Z,13.60
2018-09-18T03:48:40.293Z,13.60
2018-09-18T03:51:09.540Z,13.60
2018-09-18T03:53:38.531Z,13.50
2018-09-18T03:56:07.768Z,13.50
2018-09-18T03:58:37.696Z,13.50
2018-09-18T04:01:08.294Z,13.50
2018-09-18T04:03:37.693Z,13.50
2018-09-18T04:06:06.835Z,13.40
2018-09-18T04:08:37.509Z,13.30
2018-09-18T04:11:06.737Z,13.20
2018-09-18T04:13:35.712Z,13.20
2018-09-18T04:16:04.658Z,13.20
2018-09-18T04:18:33.651Z,13.30
2018-09-18T04:21:02.631Z,13.30
2018-09-18T04:23:31.673Z,13.20
2018-09-18T04:26:00.745Z,13.20
2018-09-18T04:28:29.732Z,13.10
2018-09-18T04:30:58.694Z,13.20
2018-09-18T04:33:27.645Z,13.10
2018-09-18T04:35:57.395Z,13.00
2018-09-18T04:38:26.355Z,13.10
2018-09-18T04:40:56.952Z,13.00
2018-09-18T04:43:25.925Z,12.90
2018-09-18T04:45:55.019Z,12.90
2018-09-18T04:48:28.826Z,12.90
2018-09-18T04:50:57.778Z,12.90
2018-09-18T04:53:26.750Z,12.80
2018-09-18T04:55:55.741Z,12.90
2018-09-18T04:58:24.750Z,12.80
2018-09-18T05:00:54.654Z,12.80
2018-09-18T05:03:24.441Z,12.80
2018-09-18T05:05:53.409Z,12.80
2018-09-18T05:08:22.385Z,12.90
2018-09-18T05:10:51.445Z,13.00
2018-09-18T05:13:20.410Z,13.10
2018-09-18T05:15:49.397Z,13.10
2018-09-18T05:18:18.407Z,13.10
2018-09-18T05:20:47.358Z,13.20
2018-09-18T05:23:16.457Z,13.30
2018-09-18T05:25:45.426Z,13.50
2018-09-18T05:28:14.425Z,13.70
2018-09-18T05:30:43.373Z,14.10
2018-09-18T05:33:12.348Z,14.60
2018-09-18T05:35:41.309Z,15.20
2018-09-18T05:38:10.399Z,15.90
2018-09-18T05:40:39.638Z,16.20
2018-09-18T05:43:08.780Z,16.30
2018-09-18T05:45:37.738Z,16.20
2018-09-18T05:48:08.007Z,16.30
2018-09-18T05:50:36.995Z,16.30
2018-09-18T05:53:06.363Z,16.40
2018-09-18T05:55:35.321Z,16.50
2018-09-18T06:00:32.976Z,17.00
2018-09-18T06:03:01.965Z,17.20
2018-09-18T06:05:31.000Z,17.40
2018-09-18T06:07:59.965Z,17.60
2018-09-18T06:10:28.970Z,18.10
2018-09-18T06:12:57.931Z,18.70
2018-09-18T06:15:27.001Z,19.60
2018-09-18T06:17:55.992Z,20.40
2018-09-18T06:20:24.966Z,21.20
2018-09-18T06:22:53.927Z,22.30
2018-09-18T06:25:23.581Z,23.50
2018-09-18T06:27:52.823Z,24.50
2018-09-18T06:30:21.973Z,25.60
2018-09-18T06:32:50.969Z,26.40
2018-09-18T06:35:21.461Z,27.00
2018-09-18T06:37:50.434Z,27.50
2018-09-18T06:42:48.029Z,28.80
2018-09-18T06:45:17.330Z,29.60
2018-09-18T06:47:46.370Z,30.60
2018-09-18T06:50:15.344Z,31.40
2018-09-18T06:52:44.293Z,32.20
2018-09-18T06:55:13.344Z,32.90
2018-09-18T06:57:42.402Z,33.70
2018-09-18T07:00:12.580Z,34.60
2018-09-18T07:02:41.536Z,35.30
2018-09-18T07:05:10.661Z,35.20
2018-09-18T07:07:41.198Z,35.30
2018-09-18T07:10:10.597Z,35.70
2018-09-18T07:17:38.106Z,36.20
2018-09-18T07:20:07.698Z,36.90
2018-09-18T07:22:36.669Z,37.40
2018-09-18T07:25:05.668Z,37.70
2018-09-18T07:27:37.119Z,37.70
2018-09-18T07:30:06.969Z,37.80
2018-09-18T07:32:36.190Z,37.80
2018-09-18T07:35:05.797Z,37.50
2018-09-18T07:37:35.071Z,37.40
2018-09-18T07:40:04.149Z,36.80
2018-09-18T07:42:33.252Z,36.00
2018-09-18T07:45:02.348Z,35.40
2018-09-18T07:47:31.352Z,34.90
2018-09-18T07:50:00.342Z,34.30
2018-09-18T07:52:29.396Z,33.40
2018-09-18T07:54:58.397Z,32.40
2018-09-18T07:57:33.943Z,31.60
2018-09-18T08:00:02.914Z,30.70
2018-09-18T08:02:31.820Z,30.00
2018-09-18T08:05:00.848Z,29.30
2018-09-18T08:07:29.757Z,28.90
2018-09-18T08:09:58.685Z,28.50
2018-09-18T08:12:27.644Z,28.00
2018-09-18T08:14:56.574Z,27.60
2018-09-18T08:17:25.566Z,27.40
2018-09-18T08:19:55.201Z,27.20
2018-09-18T08:22:24.880Z,26.80
2018-09-18T08:24:53.846Z,26.60
2018-09-18T08:27:22.803Z,26.50
2018-09-18T08:29:52.211Z,26.20
2018-09-18T08:32:21.157Z,26.00
2018-09-18T08:34:50.064Z,25.90
2018-09-18T08:37:19.058Z,25.80
2018-09-18T08:39:48.144Z,25.70
2018-09-18T08:42:17.444Z,25.50
2018-09-18T08:44:46.396Z,25.40
2018-09-18T08:47:15.426Z,25.30
2018-09-18T08:49:44.436Z,25.20
2018-09-18T08:52:13.488Z,25.20
2018-09-18T08:54:42.460Z,25.20
2018-09-18T08:57:11.479Z,25.20
2018-09-18T08:59:40.499Z,25.20
2018-09-18T09:02:09.676Z,25.20
2018-09-18T09:04:38.701Z,25.30
2018-09-18T09:07:07.803Z,25.40
2018-09-18T09:09:36.780Z,25.40
2018-09-18T09:12:07.084Z,25.40
2018-09-18T09:14:36.068Z,25.40
2018-09-18T09:17:05.875Z,25.40
2018-09-18T09:19:35.627Z,25.50
2018-09-18T09:22:07.089Z,25.50
2018-09-18T09:24:37.417Z,25.50
2018-09-18T09:27:06.470Z,25.60
2018-09-18T09:29:37.275Z,25.60
2018-09-18T09:32:06.480Z,25.60
2018-09-18T09:34:35.394Z,25.60
2018-09-18T09:37:05.259Z,25.60
2018-09-18T09:39:34.130Z,25.70
2018-09-18T09:42:03.155Z,25.70
2018-09-18T09:44:32.117Z,25.80
2018-09-18T09:47:01.573Z,25.90
2018-09-18T09:49:30.480Z,26.00
2018-09-18T09:52:00.399Z,26.00
2018-09-18T09:54:29.951Z,26.10
2018-09-18T09:57:00.084Z,26.20
2018-09-18T09:59:29.030Z,26.30
2018-09-18T10:02:03.296Z,26.30
2018-09-18T10:04:32.217Z,26.30
2018-09-18T10:07:01.174Z,26.50
2018-09-18T10:09:30.399Z,26.50
2018-09-18T10:11:59.363Z,26.60
2018-09-18T10:14:28.752Z,26.70
2018-09-18T10:16:58.013Z,26.80
2018-09-18T10:19:32.414Z,26.90
2018-09-18T10:22:01.412Z,27.00
2018-09-18T10:24:30.337Z,27.00
2018-09-18T10:26:59.392Z,27.00
2018-09-18T10:29:28.604Z,27.00
2018-09-18T10:31:57.569Z,27.10
2018-09-18T10:34:26.523Z,27.20
2018-09-18T10:36:55.464Z,27.30
2018-09-18T10:39:24.470Z,27.20
2018-09-18T10:41:56.171Z,27.20
2018-09-18T10:44:26.068Z,27.20
2018-09-18T10:46:55.954Z,27.40
2018-09-18T10:49:25.859Z,27.50
2018-09-18T10:51:54.911Z,27.50
2018-09-18T10:54:24.172Z,27.60
2018-09-18T10:56:53.122Z,27.60
2018-09-18T10:59:22.037Z,27.60
2018-09-18T11:01:52.155Z,27.70
2018-09-18T11:04:21.086Z,27.70
2018-09-18T11:06:50.312Z,27.70
2018-09-18T11:09:19.529Z,27.70
2018-09-18T11:11:48.573Z,27.80
2018-09-18T11:14:17.746Z,28.00
2018-09-18T11:16:48.417Z,28.00
2018-09-18T11:19:17.816Z,28.10
2018-09-18T11:21:46.901Z,28.10
2018-09-18T11:24:15.887Z,28.00
2018-09-18T11:26:45.556Z,28.10
2018-09-18T11:29:14.539Z,28.20
2018-09-18T11:31:43.503Z,28.10
2018-09-18T11:34:12.479Z,28.10
2018-09-18T11:36:42.712Z,28.10
2018-09-18T11:39:11.649Z,28.10
2018-09-18T11:41:42.032Z,28.10
2018-09-18T11:44:11.712Z,28.00
2018-09-18T11:46:40.757Z,28.20
2018-09-18T11:49:10.829Z,28.20
2018-09-18T11:51:40.009Z,28.20
2018-09-18T11:54:08.975Z,28.10
2018-09-18T11:56:37.947Z,28.10
2018-09-18T11:59:08.351Z,28.20
2018-09-18T12:01:38.103Z,28.20
2018-09-18T12:04:10.012Z,28.30
2018-09-18T12:06:39.725Z,28.30
2018-09-18T12:09:10.990Z,28.30
2018-09-18T12:11:40.480Z,28.30
2018-09-18T12:14:09.419Z,28.50
2018-09-18T12:16:38.732Z,28.40
2018-09-18T12:19:07.679Z,28.40
2018-09-18T12:21:36.586Z,28.50
2018-09-18T12:24:05.520Z,28.50
2018-09-18T12:26:34.442Z,28.50
2018-09-18T12:29:04.824Z,28.50
2018-09-18T12:31:34.310Z,28.50
2018-09-18T12:34:03.241Z,28.60
2018-09-18T12:36:32.837Z,28.60
2018-09-18T12:39:01.799Z,28.60
2018-09-18T12:41:30.811Z,28.70
2018-09-18T12:43:59.661Z,28.60
2018-09-18T12:46:28.580Z,28.60
2018-09-18T12:48:58.111Z,28.60
2018-09-18T12:51:27.090Z,28.60
2018-09-18T12:53:56.034Z,28.70
2018-09-18T12:56:24.977Z,28.70
2018-09-18T12:58:54.079Z,28.60
2018-09-18T13:01:23.568Z,28.60
2018-09-18T13:03:53.564Z,28.50
2018-09-18T13:06:22.598Z,28.50
2018-09-18T13:08:51.444Z,28.60
2018-09-18T13:11:20.434Z,28.60
2018-09-18T13:13:49.757Z,28.60
2018-09-18T13:16:18.893Z,28.50
2018-09-18T13:18:47.990Z,28.60
2018-09-18T13:21:18.025Z,28.60
2018-09-18T13:23:48.087Z,28.80
2018-09-18T13:26:17.032Z,28.90
2018-09-18T13:28:46.513Z,28.90
2018-09-18T13:31:18.175Z,28.90
2018-09-18T13:33:48.869Z,28.90
2018-09-18T13:36:18.983Z,28.90
2018-09-18T13:38:48.234Z,28.80
2018-09-18T13:41:17.495Z,28.70
2018-09-18T13:43:46.587Z,28.80
2018-09-18T13:46:15.700Z,28.80
2018-09-18T13:48:44.634Z,28.80
2018-09-18T13:51:14.617Z,28.90
2018-09-18T13:53:43.566Z,28.90
2018-09-18T13:56:12.649Z,28.90
2018-09-18T13:58:42.643Z,28.80
2018-09-18T14:01:12.709Z,28.80
2018-09-18T14:03:41.659Z,28.70
2018-09-18T14:06:10.919Z,28.70
2018-09-18T14:08:48.225Z,28.70
2018-09-18T14:11:18.329Z,28.80
2018-09-18T14:13:47.267Z,28.80
2018-09-18T14:16:17.249Z,28.80
2018-09-18T14:18:46.371Z,28.80
2018-09-18T14:21:18.221Z,28.80
2018-09-18T14:23:48.005Z,28.90
2018-09-18T14:26:23.572Z,29.00
2018-09-18T14:28:55.528Z,28.90
2018-09-18T14:31:24.498Z,28.90
2018-09-18T14:33:54.865Z,28.80
2018-09-18T14:36:23.810Z,29.00
2018-09-18T14:38:52.767Z,29.30
2018-09-18T14:41:22.545Z,29.20
2018-09-18T14:43:52.921Z,29.10
2018-09-18T14:46:22.161Z,29.10
2018-09-18T14:48:51.096Z,29.00
2018-09-18T14:51:20.095Z,29.00
2018-09-18T14:53:49.003Z,29.00
2018-09-18T14:56:18.075Z,29.10
2018-09-18T14:58:54.435Z,29.20
2018-09-18T15:01:23.369Z,29.20
2018-09-18T15:03:52.309Z,29.20
2018-09-18T15:06:21.359Z,29.40
2018-09-18T15:08:50.373Z,29.40
2018-09-18T15:11:20.124Z,29.30
2018-09-18T15:13:49.092Z,29.20
2018-09-18T15:16:18.115Z,29.10
2018-09-18T15:18:47.040Z,29.10
2018-09-18T15:21:16.015Z,29.00
2018-09-18T15:23:44.948Z,29.00
2018-09-18T15:26:15.720Z,29.00
2018-09-18T15:28:44.828Z,28.90
2018-09-18T15:31:15.154Z,28.80
2018-09-18T15:33:45.148Z,28.80
2018-09-18T15:36:15.148Z,28.80
2018-09-18T15:38:44.812Z,28.90
2018-09-18T15:41:13.729Z,28.90
2018-09-18T15:43:43.671Z,28.80
2018-09-18T15:46:12.660Z,28.80
2018-09-18T15:48:41.705Z,28.80
2018-09-18T15:51:11.872Z,28.70
2018-09-18T15:53:40.843Z,28.80
2018-09-18T15:56:11.911Z,28.80
2018-09-18T15:58:41.336Z,28.80
2018-09-18T16:01:10.581Z,28.80
2018-09-18T16:03:39.697Z,28.80
2018-09-18T16:06:08.608Z,28.80
2018-09-18T16:08:37.816Z,28.70
2018-09-18T16:11:06.796Z,28.70
2018-09-18T16:13:35.837Z,28.60
2018-09-18T16:16:05.781Z,28.60
2018-09-18T16:18:34.699Z,28.50
2018-09-18T16:21:03.882Z,28.50
2018-09-18T16:26:01.957Z,28.30
2018-09-18T16:28:32.037Z,28.30
2018-09-18T16:31:01.597Z,28.10
2018-09-18T16:33:30.523Z,28.10
2018-09-18T16:35:59.499Z,28.00
2018-09-18T16:38:28.421Z,27.90
2018-09-18T16:40:57.426Z,27.90
2018-09-18T16:43:28.420Z,27.80
2018-09-18T16:45:58.851Z,27.80
2018-09-18T16:51:04.538Z,27.70
2018-09-18T16:53:34.328Z,27.60
2018-09-18T16:56:03.320Z,27.50
2018-09-18T16:58:33.544Z,27.40
2018-09-18T17:01:03.191Z,27.30
2018-09-18T17:03:32.174Z,27.30
2018-09-18T17:06:01.711Z,27.20
2018-09-18T17:08:31.768Z,27.10
2018-09-18T17:11:01.742Z,27.00
2018-09-18T17:13:30.687Z,27.00
2018-09-18T17:16:00.324Z,26.80
2018-09-18T17:18:29.766Z,26.70
2018-09-18T17:20:59.213Z,26.70
2018-09-18T17:23:28.846Z,26.60
2018-09-18T17:25:57.795Z,26.50
2018-09-18T17:28:27.384Z,26.40
2018-09-18T17:30:56.268Z,26.30
2018-09-18T17:33:25.256Z,26.20
2018-09-18T17:35:54.216Z,26.20
2018-09-18T17:38:23.740Z,26.10
2018-09-18T17:40:52.736Z,26.10
2018-09-18T17:43:21.642Z,26.10
2018-09-18T17:45:50.564Z,26.00
2018-09-18T17:48:20.588Z,26.00
2018-09-18T17:50:49.538Z,26.00
2018-09-18T17:53:19.255Z,26.00
2018-09-18T17:55:48.163Z,25.90
2018-09-18T17:58:17.547Z,25.90
2018-09-18T18:00:46.523Z,25.90
2018-09-18T18:03:22.060Z,25.90
2018-09-18T18:05:51.753Z,25.80
2018-09-18T18:08:22.162Z,25.70
2018-09-18T18:10:51.268Z,25.70
2018-09-18T18:13:20.966Z,25.60
2018-09-18T18:15:50.013Z,25.60
2018-09-18T18:18:18.974Z,25.50
2018-09-18T18:20:49.117Z,25.40
2018-09-18T18:23:18.082Z,25.30
2018-09-18T18:25:47.040Z,25.20
2018-09-18T18:28:16.119Z,25.20
2018-09-18T18:30:46.183Z,25.00
2018-09-18T18:33:16.639Z,24.90
2018-09-18T18:35:45.624Z,24.80
2018-09-18T18:38:16.084Z,24.80
2018-09-18T18:40:45.113Z,24.80
2018-09-18T18:43:14.078Z,24.70
2018-09-18T18:45:43.006Z,24.70
2018-09-18T18:48:12.157Z,24.70
2018-09-18T18:50:45.074Z,24.60
2018-09-18T18:53:15.045Z,24.60
2018-09-18T18:55:43.958Z,24.60
2018-09-18T18:58:12.916Z,24.50
2018-09-18T19:00:41.916Z,24.50
2018-09-18T19:03:10.831Z,24.50
2018-09-18T19:05:41.267Z,24.50
2018-09-18T19:08:11.847Z,24.50
2018-09-18T19:10:40.816Z,24.50
2018-09-18T19:13:10.982Z,24.60
2018-09-18T19:15:39.932Z,24.60
2018-09-18T19:18:12.330Z,24.50
2018-09-18T19:20:42.281Z,24.50
2018-09-18T19:23:11.231Z,24.50
2018-09-18T19:25:40.779Z,24.40
2018-09-18T19:28:09.851Z,24.40
2018-09-18T19:30:40.495Z,24.40
2018-09-18T19:33:09.550Z,24.30
2018-09-18T19:35:38.452Z,24.30
2018-09-18T19:38:07.379Z,24.30
2018-09-18T19:40:36.343Z,24.30
2018-09-18T19:43:06.333Z,24.30
2018-09-18T19:45:35.762Z,24.30
2018-09-18T19:48:04.686Z,24.30
2018-09-18T19:50:33.689Z,24.30
2018-09-18T19:53:03.010Z,24.30
2018-09-18T19:55:32.000Z,24.30
2018-09-18T19:58:01.771Z,24.30
2018-09-18T20:00:30.757Z,24.30
2018-09-18T20:02:59.680Z,24.40
2018-09-18T20:05:28.634Z,24.40
2018-09-18T20:07:57.571Z,24.50
2018-09-18T20:10:27.036Z,24.50
2018-09-18T20:12:55.982Z,24.50
2018-09-18T20:15:24.938Z,24.50
2018-09-18T20:18:01.665Z,24.50
2018-09-18T20:20:30.745Z,24.50
2018-09-18T20:22:59.685Z,24.50
2018-09-18T20:25:28.638Z,24.40
2018-09-18T20:27:57.836Z,24.40
2018-09-18T20:30:27.440Z,24.30
2018-09-18T20:32:56.455Z,24.20
2018-09-18T20:35:30.180Z,24.10
2018-09-18T20:37:59.544Z,24.10
2018-09-18T20:40:28.502Z,23.90
2018-09-18T20:42:58.308Z,23.70
2018-09-18T20:45:27.627Z,23.60
2018-09-18T20:47:56.587Z,23.50
2018-09-18T20:50:26.182Z,23.40
2018-09-18T20:52:58.962Z,23.40
2018-09-18T20:55:27.988Z,23.30
2018-09-18T20:57:56.921Z,23.30
2018-09-18T21:00:26.473Z,23.20
2018-09-18T21:02:57.979Z,23.20
2018-09-18T21:05:26.897Z,23.10
2018-09-18T21:07:55.819Z,23.10
2018-09-18T21:10:25.810Z,23.00
2018-09-18T21:12:56.405Z,22.90
2018-09-18T21:15:25.373Z,22.80
2018-09-18T21:17:54.296Z,22.70
2018-09-18T21:20:23.238Z,22.70
2018-09-18T21:22:52.178Z,22.70
2018-09-18T21:26:27.683Z,22.60
2018-09-18T21:28:56.629Z,22.60
2018-09-18T21:31:26.980Z,22.50
2018-09-18T21:33:56.535Z,22.40
2018-09-18T21:36:28.771Z,22.30
2018-09-18T21:38:57.728Z,22.30
2018-09-18T21:41:27.165Z,22.30
2018-09-18T21:43:56.233Z,22.30
2018-09-18T21:46:25.487Z,22.20
2018-09-18T21:48:54.472Z,22.20
2018-09-18T21:51:24.137Z,22.20
2018-09-18T21:53:54.990Z,22.20
2018-09-18T21:56:24.131Z,22.10
2018-09-18T21:58:53.065Z,22.10
2018-09-18T22:01:27.123Z,22.00
2018-09-18T22:03:56.275Z,22.00
2018-09-18T22:06:25.253Z,21.90
2018-09-18T22:08:54.174Z,21.80
2018-09-18T22:11:23.497Z,21.80
2018-09-18T22:13:53.066Z,21.80
2018-09-18T22:16:23.718Z,21.70
2018-09-18T22:18:52.696Z,21.70
2018-09-18T22:21:21.733Z,21.70
2018-09-18T22:23:51.321Z,21.70
2018-09-18T22:26:21.622Z,21.70
2018-09-18T22:28:52.206Z,21.60
2018-09-18T22:31:23.556Z,21.50
2018-09-18T22:33:52.590Z,21.40
2018-09-18T22:36:21.525Z,21.40
2018-09-18T22:38:50.642Z,21.40
2018-09-18T22:41:19.663Z,21.30
2018-09-18T22:43:49.471Z,21.30
2018-09-18T22:46:19.654Z,21.20
2018-09-18T22:48:48.595Z,21.20
2018-09-18T22:51:18.238Z,21.20
2018-09-18T22:53:47.172Z,21.10
2018-09-18T22:56:16.106Z,21.10
2018-09-18T22:58:45.063Z,21.00
2018-09-18T23:01:14.063Z,20.90
2018-09-18T23:03:42.976Z,20.90
2018-09-18T23:06:11.907Z,20.80
2018-09-18T23:08:41.636Z,20.80
2018-09-18T23:11:11.502Z,20.70
2018-09-18T23:13:41.021Z,20.60
2018-09-18T23:16:10.666Z,20.60
2018-09-18T23:18:39.639Z,20.60
2018-09-18T23:21:08.538Z,20.60
2018-09-18T23:23:37.470Z,20.50
2018-09-18T23:26:07.603Z,20.50
2018-09-18T23:28:37.251Z,20.50
2018-09-18T23:31:07.776Z,20.50
2018-09-18T23:33:36.720Z,20.40
2018-09-18T23:36:05.794Z,20.30
2018-09-18T23:38:34.744Z,20.20
2018-09-18T23:41:03.673Z,20.20
2018-09-18T23:43:32.674Z,20.20
2018-09-18T23:46:02.107Z,20.10
2018-09-18T23:48:31.031Z,20.10
2018-09-18T23:50:59.957Z,20.10
2018-09-18T23:53:28.934Z,20.00
2018-09-18T23:55:59.303Z,20.00
2018-09-18T23:58:29.434Z,19.90
